AZU2893 SBPS-SBCF
Flight info
| Callsign | AZU2893 |
|---|---|
| Flight time | 1h 0m |
| Altitude | 36000 |
| Route | EDRAG DCT DORDU DCT OPTEB |
| Aircraft | A20N/M-SDE2E3FGHIRWXY/LB1 |
Departure
| Time | 2026-04-28 21:12 |
|---|---|
| Airport | Porto Seguro International Airport (SBPS) |
Arrival
| Time | 2026-04-28 22:13 |
|---|---|
| Airport | Tancredo Neves International Airport (SBCF) |
| Time | Latitude | Longitude | Altitude | Speed | Heading |
|---|---|---|---|---|---|
| 2026-04-28 20:39 | -16.44075 | -39.08130 | 170 ft | 0 kts | 176° |
| 2026-04-28 21:02 | -16.44065 | -39.08130 | 189 ft | 4 kts | 155° |
| 2026-04-28 21:02 | -16.44053 | -39.08133 | 170 ft | 4 kts | 186° |
| 2026-04-28 21:02 | -16.44030 | -39.08125 | 170 ft | 2 kts | 207° |
| 2026-04-28 21:07 | -16.44036 | -39.08136 | 170 ft | 2 kts | 252° |
| 2026-04-28 21:08 | -16.44034 | -39.08161 | 170 ft | 5 kts | 266° |
| 2026-04-28 21:08 | -16.44042 | -39.08206 | 171 ft | 8 kts | 255° |
| 2026-04-28 21:08 | -16.44058 | -39.08265 | 171 ft | 7 kts | 262° |
| 2026-04-28 21:08 | -16.44022 | -39.08296 | 171 ft | 8 kts | 347° |
| 2026-04-28 21:09 | -16.43954 | -39.08313 | 170 ft | 12 kts | 346° |
| 2026-04-28 21:09 | -16.43930 | -39.08381 | 170 ft | 13 kts | 255° |
| 2026-04-28 21:09 | -16.43956 | -39.08476 | 171 ft | 15 kts | 254° |
| 2026-04-28 21:09 | -16.43986 | -39.08586 | 173 ft | 17 kts | 255° |
| 2026-04-28 21:10 | -16.44018 | -39.08708 | 173 ft | 18 kts | 255° |
| 2026-04-28 21:10 | -16.44051 | -39.08828 | 175 ft | 18 kts | 253° |
| 2026-04-28 21:10 | -16.44053 | -39.08947 | 177 ft | 13 kts | 293° |
| 2026-04-28 21:10 | -16.44082 | -39.09008 | 177 ft | 10 kts | 174° |
| 2026-04-28 21:11 | -16.44090 | -39.08973 | 177 ft | 0 kts | 76° |
| 2026-04-28 21:11 | -16.44090 | -39.08972 | 177 ft | 0 kts | 76° |
| 2026-04-28 21:11 | -16.44082 | -39.08938 | 177 ft | 28 kts | 76° |
| 2026-04-28 21:12 | -16.43940 | -39.08423 | 171 ft | 116 kts | 74° |
| 2026-04-28 21:12 | -16.43665 | -39.07421 | 394 ft | 159 kts | 74° |
| 2026-04-28 21:12 | -16.43379 | -39.06311 | 1161 ft | 164 kts | 76° |
| 2026-04-28 21:12 | -16.43118 | -39.05141 | 2043 ft | 165 kts | 76° |
| 2026-04-28 21:13 | -16.42800 | -39.03937 | 2586 ft | 183 kts | 74° |
| 2026-04-28 21:13 | -16.42639 | -39.02561 | 3048 ft | 206 kts | 98° |
| 2026-04-28 21:13 | -16.43257 | -39.01153 | 3585 ft | 229 kts | 130° |
| 2026-04-28 21:13 | -16.44654 | -39.00197 | 4159 ft | 256 kts | 160° |
| 2026-04-28 21:14 | -16.46477 | -39.00025 | 4876 ft | 273 kts | 184° |
| 2026-04-28 21:14 | -16.48365 | -39.00369 | 5833 ft | 278 kts | 190° |
| 2026-04-28 21:14 | -16.50274 | -39.00796 | 6761 ft | 282 kts | 189° |
| 2026-04-28 21:14 | -16.52217 | -39.01170 | 7627 ft | 287 kts | 187° |
| 2026-04-28 21:15 | -16.54211 | -39.01478 | 8448 ft | 292 kts | 185° |
| 2026-04-28 21:15 | -16.56247 | -39.01744 | 9281 ft | 297 kts | 184° |
| 2026-04-28 21:15 | -16.58318 | -39.01989 | 10067 ft | 303 kts | 184° |
| 2026-04-28 21:15 | -16.60461 | -39.02233 | 10548 ft | 320 kts | 184° |
| 2026-04-28 21:16 | -16.62747 | -39.02583 | 10771 ft | 344 kts | 191° |
| 2026-04-28 21:16 | -16.65097 | -39.03312 | 11199 ft | 358 kts | 197° |
| 2026-04-28 21:16 | -16.67479 | -39.04119 | 11927 ft | 361 kts | 196° |
| 2026-04-28 21:16 | -16.69883 | -39.04922 | 12659 ft | 365 kts | 196° |
| 2026-04-28 21:17 | -16.72313 | -39.05729 | 13368 ft | 368 kts | 196° |
| 2026-04-28 21:17 | -16.74772 | -39.06546 | 14032 ft | 372 kts | 197° |
| 2026-04-28 21:17 | -16.77256 | -39.07372 | 14634 ft | 376 kts | 197° |
| 2026-04-28 21:17 | -16.79764 | -39.08205 | 15220 ft | 380 kts | 197° |
| 2026-04-28 21:18 | -16.82300 | -39.09049 | 15813 ft | 384 kts | 197° |
| 2026-04-28 21:18 | -16.84859 | -39.09903 | 16386 ft | 388 kts | 197° |
| 2026-04-28 21:18 | -16.87432 | -39.10763 | 16948 ft | 392 kts | 197° |
| 2026-04-28 21:18 | -16.90040 | -39.11634 | 17503 ft | 396 kts | 197° |
| 2026-04-28 21:19 | -16.92682 | -39.12516 | 18048 ft | 399 kts | 197° |
| 2026-04-28 21:19 | -16.95339 | -39.13402 | 18538 ft | 403 kts | 197° |
| 2026-04-28 21:19 | -16.98008 | -39.14293 | 19050 ft | 405 kts | 197° |
| 2026-04-28 21:19 | -17.00710 | -39.15194 | 19553 ft | 408 kts | 197° |
| 2026-04-28 21:20 | -17.03420 | -39.16100 | 20037 ft | 411 kts | 197° |
| 2026-04-28 21:20 | -17.06093 | -39.17161 | 20508 ft | 414 kts | 208° |
| 2026-04-28 21:20 | -17.08453 | -39.18890 | 20992 ft | 416 kts | 224° |
| 2026-04-28 21:20 | -17.10301 | -39.21215 | 21480 ft | 418 kts | 239° |
| 2026-04-28 21:21 | -17.11512 | -39.23967 | 21930 ft | 419 kts | 254° |
| 2026-04-28 21:21 | -17.12008 | -39.26959 | 22393 ft | 420 kts | 269° |
| 2026-04-28 21:21 | -17.11760 | -39.30003 | 22864 ft | 421 kts | 283° |
| 2026-04-28 21:21 | -17.11034 | -39.32968 | 23331 ft | 423 kts | 287° |
| 2026-04-28 21:22 | -17.10207 | -39.35930 | 23757 ft | 426 kts | 287° |
| 2026-04-28 21:22 | -17.09415 | -39.38924 | 24179 ft | 428 kts | 286° |
| 2026-04-28 21:22 | -17.08677 | -39.41952 | 24581 ft | 431 kts | 285° |
| 2026-04-28 21:22 | -17.08211 | -39.43967 | 24835 ft | 433 kts | 284° |
| 2026-04-28 21:23 | -17.07291 | -39.48088 | 25357 ft | 436 kts | 284° |
| 2026-04-28 21:23 | -17.06620 | -39.51143 | 25747 ft | 438 kts | 284° |
| 2026-04-28 21:23 | -17.05943 | -39.54230 | 26112 ft | 441 kts | 284° |
| 2026-04-28 21:23 | -17.05251 | -39.57382 | 26481 ft | 443 kts | 284° |
| 2026-04-28 21:24 | -17.04558 | -39.60532 | 26848 ft | 446 kts | 284° |
| 2026-04-28 21:24 | -17.03862 | -39.63694 | 27213 ft | 448 kts | 284° |
| 2026-04-28 21:24 | -17.03159 | -39.66882 | 27569 ft | 450 kts | 283° |
| 2026-04-28 21:24 | -17.02454 | -39.70076 | 27913 ft | 453 kts | 283° |
| 2026-04-28 21:25 | -17.01745 | -39.73284 | 28270 ft | 455 kts | 283° |
| 2026-04-28 21:25 | -17.01031 | -39.76511 | 28627 ft | 457 kts | 283° |
| 2026-04-28 21:25 | -17.00314 | -39.79749 | 28980 ft | 458 kts | 283° |
| 2026-04-28 21:25 | -16.99595 | -39.82998 | 29299 ft | 461 kts | 283° |
| 2026-04-28 21:26 | -16.98895 | -39.86274 | 29622 ft | 462 kts | 280° |
| 2026-04-28 21:26 | -16.98565 | -39.89615 | 29949 ft | 465 kts | 271° |
| 2026-04-28 21:26 | -16.98723 | -39.92992 | 30234 ft | 467 kts | 262° |
| 2026-04-28 21:26 | -16.99359 | -39.96318 | 30550 ft | 467 kts | 256° |
| 2026-04-28 21:27 | -17.00156 | -39.99612 | 30876 ft | 468 kts | 256° |
| 2026-04-28 21:27 | -17.00944 | -40.02920 | 31205 ft | 469 kts | 256° |
| 2026-04-28 21:27 | -17.01725 | -40.06222 | 31618 ft | 468 kts | 256° |
| 2026-04-28 21:27 | -17.02502 | -40.09512 | 32080 ft | 466 kts | 256° |
| 2026-04-28 21:28 | -17.03275 | -40.12790 | 32517 ft | 464 kts | 256° |
| 2026-04-28 21:28 | -17.04045 | -40.16054 | 32959 ft | 461 kts | 256° |
| 2026-04-28 21:28 | -17.04811 | -40.19299 | 33402 ft | 459 kts | 256° |
| 2026-04-28 21:28 | -17.05574 | -40.22536 | 33806 ft | 458 kts | 256° |
| 2026-04-28 21:29 | -17.06332 | -40.25754 | 34187 ft | 456 kts | 256° |
| 2026-04-28 21:29 | -17.07089 | -40.28974 | 34508 ft | 455 kts | 256° |
| 2026-04-28 21:29 | -17.07841 | -40.32174 | 34814 ft | 454 kts | 256° |
| 2026-04-28 21:29 | -17.08583 | -40.35331 | 35104 ft | 453 kts | 256° |
| 2026-04-28 21:30 | -17.09333 | -40.38527 | 35384 ft | 452 kts | 256° |
| 2026-04-28 21:30 | -17.09836 | -40.40673 | 35583 ft | 452 kts | 256° |
| 2026-04-28 21:30 | -17.10583 | -40.43859 | 35870 ft | 451 kts | 256° |
| 2026-04-28 21:30 | -17.11570 | -40.48075 | 35994 ft | 449 kts | 256° |
| 2026-04-28 21:31 | -17.12810 | -40.53377 | 36048 ft | 448 kts | 256° |
| 2026-04-28 21:31 | -17.14288 | -40.59703 | 36048 ft | 448 kts | 256° |
| 2026-04-28 21:32 | -17.15762 | -40.66022 | 36045 ft | 448 kts | 257° |
| 2026-04-28 21:32 | -17.17234 | -40.72343 | 36047 ft | 448 kts | 257° |
| 2026-04-28 21:33 | -17.18704 | -40.78664 | 36046 ft | 448 kts | 257° |
| 2026-04-28 21:33 | -17.20175 | -40.84999 | 36046 ft | 448 kts | 257° |
| 2026-04-28 21:34 | -17.21642 | -40.91325 | 36047 ft | 448 kts | 257° |
| 2026-04-28 21:34 | -17.23097 | -40.97613 | 36048 ft | 448 kts | 257° |
| 2026-04-28 21:35 | -17.24560 | -41.03942 | 36049 ft | 448 kts | 257° |
| 2026-04-28 21:35 | -17.26023 | -41.10277 | 36052 ft | 448 kts | 257° |
| 2026-04-28 21:36 | -17.27479 | -41.16596 | 36056 ft | 447 kts | 257° |
| 2026-04-28 21:36 | -17.28937 | -41.22930 | 36055 ft | 447 kts | 257° |
| 2026-04-28 21:37 | -17.30391 | -41.29257 | 36061 ft | 447 kts | 257° |
| 2026-04-28 21:37 | -17.31842 | -41.35586 | 36061 ft | 447 kts | 257° |
| 2026-04-28 21:38 | -17.33291 | -41.41911 | 36063 ft | 447 kts | 257° |
| 2026-04-28 21:38 | -17.34737 | -41.48235 | 36071 ft | 447 kts | 257° |
| 2026-04-28 21:39 | -17.36184 | -41.54568 | 36067 ft | 447 kts | 257° |
| 2026-04-28 21:39 | -17.37627 | -41.60898 | 36069 ft | 447 kts | 257° |
| 2026-04-28 21:40 | -17.39065 | -41.67218 | 36069 ft | 447 kts | 257° |
| 2026-04-28 21:40 | -17.40502 | -41.73539 | 36071 ft | 446 kts | 257° |
| 2026-04-28 21:41 | -17.41939 | -41.79872 | 36074 ft | 446 kts | 257° |
| 2026-04-28 21:41 | -17.43362 | -41.86150 | 36076 ft | 446 kts | 257° |
| 2026-04-28 21:42 | -17.44795 | -41.92483 | 36076 ft | 446 kts | 257° |
| 2026-04-28 21:42 | -17.46723 | -41.98652 | 36073 ft | 447 kts | 245° |
| 2026-04-28 21:43 | -17.50027 | -42.04156 | 36073 ft | 449 kts | 231° |
| 2026-04-28 21:43 | -17.54109 | -42.09113 | 36075 ft | 449 kts | 230° |
| 2026-04-28 21:44 | -17.58181 | -42.14078 | 36077 ft | 449 kts | 230° |
| 2026-04-28 21:44 | -17.62252 | -42.19046 | 36077 ft | 449 kts | 230° |
| 2026-04-28 21:45 | -17.66326 | -42.24017 | 36077 ft | 449 kts | 230° |
| 2026-04-28 21:45 | -17.70398 | -42.28990 | 36078 ft | 449 kts | 230° |
| 2026-04-28 21:46 | -17.74476 | -42.33974 | 36078 ft | 450 kts | 230° |
| 2026-04-28 21:46 | -17.78546 | -42.38951 | 36076 ft | 450 kts | 230° |
| 2026-04-28 21:47 | -17.82616 | -42.43933 | 36074 ft | 450 kts | 230° |
| 2026-04-28 21:47 | -17.86687 | -42.48919 | 36074 ft | 450 kts | 230° |
| 2026-04-28 21:48 | -17.90755 | -42.53906 | 36071 ft | 450 kts | 230° |
| 2026-04-28 21:48 | -17.94822 | -42.58896 | 36071 ft | 450 kts | 230° |
| 2026-04-28 21:49 | -17.98866 | -42.63861 | 36069 ft | 450 kts | 230° |
| 2026-04-28 21:49 | -18.02931 | -42.68856 | 36070 ft | 450 kts | 230° |
| 2026-04-28 21:50 | -18.06992 | -42.73850 | 36065 ft | 450 kts | 230° |
| 2026-04-28 21:50 | -18.11052 | -42.78847 | 36067 ft | 450 kts | 230° |
| 2026-04-28 21:51 | -18.15107 | -42.83841 | 36068 ft | 449 kts | 230° |
| 2026-04-28 21:51 | -18.19168 | -42.88846 | 36068 ft | 449 kts | 230° |
| 2026-04-28 21:52 | -18.23221 | -42.93846 | 36070 ft | 449 kts | 230° |
| 2026-04-28 21:52 | -18.27270 | -42.98845 | 35976 ft | 449 kts | 230° |
| 2026-04-28 21:53 | -18.29303 | -43.01356 | 35536 ft | 450 kts | 231° |
| 2026-04-28 21:53 | -18.31346 | -43.03880 | 34709 ft | 456 kts | 231° |
| 2026-04-28 21:53 | -18.33424 | -43.06450 | 33558 ft | 467 kts | 231° |
| 2026-04-28 21:53 | -18.35551 | -43.09081 | 32387 ft | 476 kts | 231° |
| 2026-04-28 21:54 | -18.37737 | -43.11720 | 31375 ft | 481 kts | 227° |
| 2026-04-28 21:54 | -18.40181 | -43.14125 | 30679 ft | 480 kts | 221° |
| 2026-04-28 21:54 | -18.42814 | -43.16244 | 30177 ft | 474 kts | 218° |
| 2026-04-28 21:54 | -18.45451 | -43.18326 | 29482 ft | 470 kts | 218° |
| 2026-04-28 21:55 | -18.48036 | -43.20380 | 28908 ft | 463 kts | 219° |
| 2026-04-28 21:55 | -18.50596 | -43.22416 | 28305 ft | 458 kts | 219° |
| 2026-04-28 21:55 | -18.53128 | -43.24428 | 27723 ft | 454 kts | 219° |
| 2026-04-28 21:55 | -18.55638 | -43.26421 | 27124 ft | 450 kts | 219° |
| 2026-04-28 21:56 | -18.58127 | -43.28397 | 26418 ft | 449 kts | 219° |
| 2026-04-28 21:56 | -18.60607 | -43.30367 | 25879 ft | 444 kts | 219° |
| 2026-04-28 21:56 | -18.63035 | -43.32295 | 25305 ft | 441 kts | 219° |
| 2026-04-28 21:56 | -18.65480 | -43.34237 | 24734 ft | 438 kts | 219° |
| 2026-04-28 21:57 | -18.67911 | -43.36168 | 24148 ft | 435 kts | 219° |
| 2026-04-28 21:57 | -18.70318 | -43.38082 | 23552 ft | 433 kts | 219° |
| 2026-04-28 21:57 | -18.72719 | -43.39990 | 22946 ft | 429 kts | 219° |
| 2026-04-28 21:57 | -18.75090 | -43.41877 | 22377 ft | 425 kts | 219° |
| 2026-04-28 21:58 | -18.77434 | -43.43742 | 21808 ft | 421 kts | 219° |
| 2026-04-28 21:58 | -18.79760 | -43.45594 | 21230 ft | 417 kts | 219° |
| 2026-04-28 21:58 | -18.82072 | -43.47436 | 20646 ft | 414 kts | 218° |
| 2026-04-28 21:58 | -18.84357 | -43.49256 | 20070 ft | 411 kts | 218° |
| 2026-04-28 21:59 | -18.86632 | -43.51069 | 19501 ft | 409 kts | 218° |
| 2026-04-28 21:59 | -18.88887 | -43.52867 | 18946 ft | 406 kts | 218° |
| 2026-04-28 21:59 | -18.91135 | -43.54660 | 18399 ft | 403 kts | 218° |
| 2026-04-28 22:00 | -18.95575 | -43.58203 | 17277 ft | 396 kts | 218° |
| 2026-04-28 22:00 | -18.97758 | -43.59946 | 16735 ft | 392 kts | 218° |
| 2026-04-28 22:00 | -18.99926 | -43.61677 | 16188 ft | 389 kts | 218° |
| 2026-04-28 22:00 | -19.02066 | -43.63386 | 15609 ft | 386 kts | 218° |
| 2026-04-28 22:01 | -19.04214 | -43.65082 | 15119 ft | 383 kts | 218° |
| 2026-04-28 22:01 | -19.06349 | -43.66759 | 14590 ft | 381 kts | 217° |
| 2026-04-28 22:01 | -19.08459 | -43.68416 | 14052 ft | 379 kts | 217° |
| 2026-04-28 22:01 | -19.10569 | -43.70077 | 13469 ft | 378 kts | 217° |
| 2026-04-28 22:02 | -19.12658 | -43.71724 | 12982 ft | 373 kts | 217° |
| 2026-04-28 22:02 | -19.14700 | -43.73337 | 12486 ft | 369 kts | 216° |
| 2026-04-28 22:02 | -19.16775 | -43.74976 | 11961 ft | 366 kts | 216° |
| 2026-04-28 22:02 | -19.18805 | -43.76579 | 11447 ft | 363 kts | 216° |
| 2026-04-28 22:03 | -19.20825 | -43.78174 | 10909 ft | 361 kts | 215° |
| 2026-04-28 22:03 | -19.22817 | -43.79747 | 10563 ft | 351 kts | 215° |
| 2026-04-28 22:03 | -19.24716 | -43.81248 | 10358 ft | 330 kts | 215° |
| 2026-04-28 22:03 | -19.26330 | -43.82659 | 10217 ft | 314 kts | 223° |
| 2026-04-28 22:04 | -19.27787 | -43.84274 | 9857 ft | 304 kts | 225° |
| 2026-04-28 22:04 | -19.29236 | -43.85904 | 9611 ft | 296 kts | 225° |
| 2026-04-28 22:04 | -19.30658 | -43.87493 | 9457 ft | 299 kts | 225° |
| 2026-04-28 22:04 | -19.32077 | -43.89079 | 9100 ft | 302 kts | 225° |
| 2026-04-28 22:05 | -19.33523 | -43.90696 | 8727 ft | 302 kts | 225° |
| 2026-04-28 22:05 | -19.34958 | -43.92302 | 8354 ft | 300 kts | 225° |
| 2026-04-28 22:05 | -19.36387 | -43.93904 | 8081 ft | 294 kts | 225° |
| 2026-04-28 22:05 | -19.37763 | -43.95447 | 7976 ft | 282 kts | 225° |
| 2026-04-28 22:06 | -19.39082 | -43.96926 | 7881 ft | 270 kts | 225° |
| 2026-04-28 22:06 | -19.40346 | -43.98342 | 7788 ft | 259 kts | 225° |
| 2026-04-28 22:06 | -19.41553 | -43.99695 | 7527 ft | 250 kts | 225° |
| 2026-04-28 22:06 | -19.42361 | -44.00599 | 7269 ft | 249 kts | 225° |
| 2026-04-28 22:07 | -19.42657 | -44.00932 | 7234 ft | 247 kts | 225° |
| 2026-04-28 22:07 | -19.43771 | -44.02189 | 7129 ft | 244 kts | 226° |
| 2026-04-28 22:07 | -19.44896 | -44.03529 | 6987 ft | 243 kts | 227° |
| 2026-04-28 22:08 | -19.45978 | -44.04854 | 6894 ft | 232 kts | 227° |
| 2026-04-28 22:08 | -19.47006 | -44.06116 | 6809 ft | 221 kts | 227° |
| 2026-04-28 22:08 | -19.47990 | -44.07317 | 6711 ft | 208 kts | 227° |
| 2026-04-28 22:08 | -19.49032 | -44.08297 | 6437 ft | 201 kts | 201° |
| 2026-04-28 22:09 | -19.50375 | -44.08411 | 6009 ft | 196 kts | 162° |
| 2026-04-28 22:09 | -19.51585 | -44.07777 | 5604 ft | 194 kts | 141° |
| 2026-04-28 22:09 | -19.52621 | -44.06867 | 5255 ft | 191 kts | 134° |
| 2026-04-28 22:09 | -19.53586 | -44.05942 | 4989 ft | 183 kts | 136° |
| 2026-04-28 22:10 | -19.54506 | -44.05093 | 4763 ft | 167 kts | 135° |
| 2026-04-28 22:10 | -19.55342 | -44.04317 | 4560 ft | 154 kts | 135° |
| 2026-04-28 22:10 | -19.56133 | -44.03582 | 4358 ft | 151 kts | 135° |
| 2026-04-28 22:10 | -19.56927 | -44.02845 | 4168 ft | 151 kts | 135° |
| 2026-04-28 22:11 | -19.57716 | -44.02113 | 3975 ft | 150 kts | 135° |
| 2026-04-28 22:11 | -19.58501 | -44.01386 | 3789 ft | 152 kts | 136° |
| 2026-04-28 22:11 | -19.59298 | -44.00646 | 3604 ft | 151 kts | 136° |
| 2026-04-28 22:11 | -19.60085 | -43.99913 | 3424 ft | 149 kts | 136° |
| 2026-04-28 22:12 | -19.60872 | -43.99185 | 3233 ft | 151 kts | 137° |
| 2026-04-28 22:12 | -19.61673 | -43.98456 | 3068 ft | 152 kts | 136° |
| 2026-04-28 22:12 | -19.62452 | -43.97714 | 2856 ft | 149 kts | 139° |
| 2026-04-28 22:12 | -19.63169 | -43.97063 | 2830 ft | 104 kts | 138° |
| 2026-04-28 22:13 | -19.63496 | -43.96759 | 2829 ft | 30 kts | 136° |
| 2026-04-28 22:13 | -19.63588 | -43.96594 | 2829 ft | 20 kts | 111° |
| 2026-04-28 22:13 | -19.63620 | -43.96501 | 2831 ft | 11 kts | 110° |
| 2026-04-28 22:13 | -19.63640 | -43.96443 | 2833 ft | 8 kts | 110° |
| 2026-04-28 22:14 | -19.63648 | -43.96386 | 2831 ft | 7 kts | 66° |
| 2026-04-28 22:14 | -19.63606 | -43.96357 | 2830 ft | 6 kts | 27° |
| 2026-04-28 22:14 | -19.63602 | -43.96355 | 2830 ft | 0 kts | 28° |
| 2026-04-28 22:15 | -19.63600 | -43.96354 | 2830 ft | 1 kts | 28° |
| 2026-04-28 22:15 | -19.63581 | -43.96342 | 2832 ft | 5 kts | 28° |
| 2026-04-28 22:15 | -19.63541 | -43.96318 | 2828 ft | 8 kts | 30° |
| 2026-04-28 22:16 | -19.63488 | -43.96287 | 2829 ft | 8 kts | 26° |
| 2026-04-28 22:16 | -19.63444 | -43.96289 | 2833 ft | 7 kts | 314° |
| 2026-04-28 22:16 | -19.63417 | -43.96337 | 2830 ft | 9 kts | 300° |
| 2026-04-28 22:16 | -19.63399 | -43.96371 | 2832 ft | 1 kts | 298° |
| 2026-04-28 22:17 | -19.63397 | -43.96377 | 2831 ft | 2 kts | 294° |
| 2026-04-28 22:17 | -19.63385 | -43.96401 | 2830 ft | 4 kts | 301° |
| 2026-04-28 22:17 | -19.63369 | -43.96426 | 2829 ft | 4 kts | 310° |
| 2026-04-28 22:17 | -19.63353 | -43.96440 | 2828 ft | 2 kts | 338° |
| 2026-04-28 22:18 | -19.63341 | -43.96435 | 2828 ft | 2 kts | 33° |
| 2026-04-28 22:18 | -19.63333 | -43.96422 | 2831 ft | 4 kts | 56° |
| 2026-04-28 22:18 | -19.63325 | -43.96411 | 2829 ft | 1 kts | 51° |
| 2026-04-28 22:18 | -19.63321 | -43.96406 | 2828 ft | 0 kts | 50° |